Saline, MI (48176)

9:32 AM EDT on September 01, 2015 (GMT -0400)
River Ridge | | Change Station
CLOSE
Current Station
Personal Weather Station
Location: Saline, MI
Elevation: 823 ft
Nearby Weather Stations

Elev 823 ft 42.16 °N, 83.80 °W | Updated 14 minutes ago

Clear
Clear
77.9 °F
Feels Like 80 °F
N
1.1
Wind Variable Wind from SSW

Today
High -- | Low -- °F
--% Chance of Precip.
Yesterday
High -- | Low -- °F
Precip. -- in
7:00 AM 8:09 PM
Waning Gibbous, 89% visible
Pressure 30.09 in
Visibility 4.0 miles
Clouds Clear
Heat Index 80 °F
Dew Point 71 °F
Humidity 79%
Rainfall 0.00 in
Snow Depth Not available.
UV 1 out of 12
Pollen 10.50 out of 12
Air Quality Not available.
Flu Activity Not available.
METAR KARB 011253Z 00000KT 4SM BR CLR 21/20 A3010 RMK AO2 SLP190 T02110200
Pressure 30.09 in
Visibility 4.0 miles
Clouds Clear
Heat Index 80 °F
Dew Point 71 °F
Humidity 79%
Rainfall 0.00 in
Snow Depth Not available.
UV 1 out of 12
Pollen 10.50 out of 12
Air Quality Not available.
Flu Activity Not available.
METAR KARB 011253Z 00000KT 4SM BR CLR 21/20 A3010 RMK AO2 SLP190 T02110200

10-Day Weather Forecast

×

Almanac

Astronomy

Sep. 01, 2015 Rise Set
Actual Time
Civil Twilight
Nautical Twilight
Astronomical Twilight
Moon
Length of Visible Light
Length of Day
Tomorrow will be .
, % of the Moon is Illuminated

Today's Extremes

State Highs State Lows

Community

WunderPhotos

Upload Photos

1,851,513 photos uploaded!

WunderBlogs® & News

Nearby

Air Quality

  Air Quality AQ Index Pollutant
Not available.

Snow Depth

Station Depth Elevation

Earthquake Activity

City Distance Mag. Time & Date
Minimum magnitude displayed is 2.5.

Coastal Water Temperatures

Place Temperature

Stations

Nearby Weather Stations

Station Location Temp. Windchill Dew Point Humidity Wind Precip. Elev Updated Type